ENNA METAR and TAF weather

Enter ICAO airport designator
Station Type Date Time Source
ENNA METAR 2024/07/23 16:50 UTC NOAA

ENNA 231650Z 17010KT CAVOK 29/12 Q1011 RMK WIND 1800FT 19013KT


Station Type Date Time Source
ENNA Decoded METAR 2024/07/23 16:50 UTC NOAA

Banak, Norway (ENNA) 70-04N 024-59E 8M
Jul 23, 2024 - 12:50 PM EDT / 2024.07.23 1650 UTC
Wind: from the S (170 degrees) at 12 MPH (10 KT):0
Visibility: greater than 7 mile(s):0
Temperature: 84 F (29 C)
Dew Point: 53 F (12 C)
Relative Humidity: 34%
Pressure (altimeter): 29.85 in. Hg (1011 hPa)
ob: ENNA 231650Z 17010KT CAVOK 29/12 Q1011 RMK WIND 1800FT 19013KT
cycle: 17

Station Type Date Time Source
ENNA TAF 2024/07/23 12:36 UTC NOAA